createdAt,value
2017-05-29T00:00:53.614Z,21.60
2017-05-29T00:03:22.159Z,21.70
2017-05-29T00:05:49.433Z,21.70
2017-05-29T00:08:16.433Z,21.80
2017-05-29T00:10:45.549Z,21.80
2017-05-29T00:13:15.712Z,21.60
2017-05-29T00:15:44.210Z,21.60
2017-05-29T00:18:12.761Z,21.70
2017-05-29T00:20:41.034Z,21.40
2017-05-29T00:23:08.022Z,21.20
2017-05-29T00:25:35.923Z,21.30
2017-05-29T00:28:02.911Z,21.60
2017-05-29T00:30:33.289Z,21.60
2017-05-29T00:33:01.015Z,21.40
2017-05-29T00:35:27.980Z,21.20
2017-05-29T00:37:55.513Z,21.50
2017-05-29T00:40:24.860Z,21.60
2017-05-29T00:42:56.179Z,21.40
2017-05-29T00:45:23.266Z,21.50
2017-05-29T00:47:55.525Z,21.60
2017-05-29T00:50:24.925Z,21.70
2017-05-29T00:52:53.688Z,21.70
2017-05-29T00:55:24.017Z,21.70
2017-05-29T00:57:51.533Z,21.70
2017-05-29T01:00:18.572Z,21.70
2017-05-29T01:02:45.584Z,21.50
2017-05-29T01:05:15.468Z,21.10
2017-05-29T01:07:43.804Z,20.90
2017-05-29T01:10:13.127Z,20.80
2017-05-29T01:12:41.385Z,20.80
2017-05-29T01:15:10.628Z,21.00
2017-05-29T01:17:39.786Z,21.00
2017-05-29T01:20:07.747Z,21.00
2017-05-29T01:22:36.168Z,21.10
2017-05-29T01:25:05.690Z,21.10
2017-05-29T01:27:34.640Z,21.10
2017-05-29T01:30:03.367Z,21.20
2017-05-29T01:32:32.419Z,21.30
2017-05-29T01:34:59.455Z,21.40
2017-05-29T01:47:16.506Z,21.40
2017-05-29T01:49:43.765Z,21.50
2017-05-29T01:52:12.105Z,21.40
2017-05-29T01:54:40.858Z,21.40
2017-05-29T01:57:08.993Z,21.40
2017-05-29T01:59:36.761Z,21.30
2017-05-29T02:02:04.542Z,21.40
2017-05-29T02:04:32.644Z,21.50
2017-05-29T02:07:01.265Z,21.50
2017-05-29T02:09:32.842Z,21.50
2017-05-29T02:12:02.068Z,21.30
2017-05-29T02:14:30.563Z,21.30
2017-05-29T02:16:57.565Z,21.30
2017-05-29T02:19:25.915Z,21.10
2017-05-29T02:21:54.776Z,21.20
2017-05-29T02:24:22.423Z,21.20
2017-05-29T02:26:51.333Z,21.20
2017-05-29T02:29:18.303Z,21.20
2017-05-29T02:31:46.278Z,21.30
2017-05-29T02:44:03.696Z,21.20
2017-05-29T02:46:31.647Z,21.00
2017-05-29T02:49:00.559Z,21.00
2017-05-29T02:51:27.915Z,21.00
2017-05-29T02:53:55.174Z,21.00
2017-05-29T02:56:22.738Z,20.90
2017-05-29T02:58:50.089Z,21.00
2017-05-29T03:01:17.833Z,20.90
2017-05-29T03:03:45.744Z,20.80
2017-05-29T03:06:13.985Z,20.60
2017-05-29T03:08:41.235Z,20.50
2017-05-29T03:11:10.648Z,20.60
2017-05-29T03:13:38.888Z,20.60
2017-05-29T03:16:09.618Z,20.50
2017-05-29T03:18:39.868Z,20.50
2017-05-29T03:21:06.865Z,20.60
2017-05-29T03:23:36.924Z,20.50
2017-05-29T03:26:06.656Z,20.60
2017-05-29T03:28:35.069Z,20.50
2017-05-29T03:31:02.686Z,20.50
2017-05-29T03:33:31.355Z,20.60
2017-05-29T03:35:59.233Z,20.70
2017-05-29T03:38:29.202Z,20.80
2017-05-29T03:40:56.271Z,20.70
2017-05-29T03:43:25.273Z,20.60
2017-05-29T03:55:38.118Z,20.30
2017-05-29T03:58:06.628Z,20.70
2017-05-29T04:00:35.581Z,20.80
2017-05-29T04:03:03.449Z,20.80
2017-05-29T04:05:33.064Z,20.80
2017-05-29T04:08:01.580Z,20.90
2017-05-29T04:10:30.010Z,20.90
2017-05-29T04:12:57.915Z,20.90
2017-05-29T04:15:27.747Z,20.80
2017-05-29T04:17:56.786Z,20.80
2017-05-29T04:20:25.870Z,21.00
2017-05-29T04:22:52.953Z,21.10
2017-05-29T04:25:20.647Z,21.30
2017-05-29T04:27:48.827Z,21.40
2017-05-29T04:30:16.759Z,21.40
2017-05-29T04:32:43.716Z,21.40
2017-05-29T04:35:12.989Z,21.30
2017-05-29T04:47:31.362Z,21.40
2017-05-29T04:50:00.312Z,21.50
2017-05-29T04:52:28.360Z,21.50
2017-05-29T04:54:57.140Z,21.60
2017-05-29T04:57:26.511Z,21.60
2017-05-29T04:59:55.149Z,21.70
2017-05-29T05:02:23.133Z,21.70
2017-05-29T05:04:51.391Z,21.70
2017-05-29T05:07:18.954Z,21.80
2017-05-29T05:09:49.797Z,22.00
2017-05-29T05:12:17.990Z,22.10
2017-05-29T05:14:49.854Z,22.20
2017-05-29T05:17:17.189Z,22.20
2017-05-29T05:19:45.133Z,22.30
2017-05-29T05:22:14.764Z,22.40
2017-05-29T05:24:44.060Z,22.50
2017-05-29T05:27:12.644Z,22.50
2017-05-29T05:29:40.392Z,22.60
2017-05-29T05:32:07.873Z,22.80
2017-05-29T05:34:38.246Z,22.80
2017-05-29T05:37:12.290Z,22.90
2017-05-29T05:39:41.832Z,22.80
2017-05-29T05:42:10.276Z,22.90
2017-05-29T05:44:37.272Z,22.90
2017-05-29T05:47:04.865Z,23.30
2017-05-29T05:49:34.853Z,23.70
2017-05-29T05:52:04.421Z,24.10
2017-05-29T05:54:32.655Z,24.60
2017-05-29T05:57:05.095Z,25.30
2017-05-29T05:59:32.510Z,25.80
2017-05-29T06:02:00.383Z,25.90
2017-05-29T06:04:30.828Z,26.10
2017-05-29T06:07:02.514Z,26.30
2017-05-29T06:09:30.762Z,26.60
2017-05-29T06:11:57.736Z,26.80
2017-05-29T06:14:26.355Z,27.00
2017-05-29T06:16:54.994Z,27.10
2017-05-29T06:19:24.733Z,27.30
2017-05-29T06:21:52.503Z,27.40
2017-05-29T06:24:22.905Z,27.40
2017-05-29T06:26:52.803Z,27.50
2017-05-29T06:29:20.875Z,27.80
2017-05-29T06:34:27.311Z,28.20
2017-05-29T06:36:56.456Z,28.50
2017-05-29T06:39:23.721Z,28.60
2017-05-29T06:41:53.411Z,28.80
2017-05-29T06:44:23.132Z,29.00
2017-05-29T06:46:50.380Z,29.10
2017-05-29T06:49:18.102Z,29.40
2017-05-29T06:51:47.364Z,29.50
2017-05-29T06:54:15.628Z,29.60
2017-05-29T06:56:47.505Z,29.60
2017-05-29T06:59:14.441Z,29.60
2017-05-29T07:01:42.096Z,29.60
2017-05-29T07:04:11.192Z,30.00
2017-05-29T07:06:39.039Z,30.20
2017-05-29T07:09:08.935Z,30.40
2017-05-29T07:11:37.151Z,30.60
2017-05-29T07:14:05.569Z,30.80
2017-05-29T07:16:34.435Z,30.90
2017-05-29T07:19:02.316Z,31.20
2017-05-29T07:21:32.086Z,31.30
2017-05-29T07:24:00.015Z,31.40
2017-05-29T07:26:30.021Z,31.80
2017-05-29T07:28:57.831Z,31.80
2017-05-29T07:31:27.336Z,32.00
2017-05-29T07:33:55.962Z,32.30
2017-05-29T07:36:22.896Z,32.50
2017-05-29T07:38:50.139Z,32.70
2017-05-29T07:41:17.160Z,33.20
2017-05-29T07:43:47.127Z,33.30
2017-05-29T07:46:15.215Z,33.00
2017-05-29T07:48:42.965Z,33.10
2017-05-29T07:51:14.999Z,33.20
2017-05-29T07:53:41.960Z,33.50
2017-05-29T07:56:12.811Z,33.40
2017-05-29T07:58:43.215Z,33.30
2017-05-29T08:01:11.863Z,33.80
2017-05-29T08:03:38.875Z,33.80
2017-05-29T08:06:06.587Z,33.50
2017-05-29T08:08:38.254Z,33.30
2017-05-29T08:11:09.562Z,33.00
2017-05-29T08:13:38.075Z,32.60
2017-05-29T08:16:07.929Z,32.60
2017-05-29T08:18:35.015Z,32.60
2017-05-29T08:21:05.295Z,32.40
2017-05-29T08:23:33.054Z,32.40
2017-05-29T08:26:00.246Z,32.40
2017-05-29T08:28:28.275Z,32.30
2017-05-29T08:30:56.199Z,32.40
2017-05-29T08:33:24.231Z,32.40
2017-05-29T08:35:54.031Z,32.50
2017-05-29T08:38:21.925Z,33.00
2017-05-29T08:40:50.586Z,32.80
2017-05-29T08:43:20.736Z,32.80
2017-05-29T08:45:48.727Z,32.90
2017-05-29T08:48:16.437Z,33.00
2017-05-29T08:50:45.212Z,33.10
2017-05-29T08:53:12.800Z,33.20
2017-05-29T08:55:39.764Z,33.40
2017-05-29T08:58:07.126Z,33.20
2017-05-29T09:00:36.176Z,33.20
2017-05-29T09:03:04.711Z,33.30
2017-05-29T09:05:34.200Z,33.50
2017-05-29T09:08:01.170Z,33.60
2017-05-29T09:10:31.191Z,33.60
2017-05-29T09:12:58.160Z,33.90
2017-05-29T09:15:26.031Z,34.00
2017-05-29T09:17:54.579Z,33.80
2017-05-29T09:20:21.592Z,34.00
2017-05-29T09:22:50.092Z,34.20
2017-05-29T09:25:17.336Z,34.20
2017-05-29T09:27:46.528Z,34.50
2017-05-29T09:30:18.193Z,34.90
2017-05-29T09:32:46.871Z,34.70
2017-05-29T09:35:18.413Z,34.50
2017-05-29T09:37:49.166Z,34.70
2017-05-29T09:40:22.116Z,35.30
2017-05-29T09:42:50.845Z,35.70
2017-05-29T09:45:18.839Z,36.30
2017-05-29T09:47:46.971Z,36.70
2017-05-29T09:50:15.247Z,37.20
2017-05-29T09:52:43.775Z,37.80
2017-05-29T09:55:10.708Z,38.10
2017-05-29T09:57:40.531Z,38.70
2017-05-29T10:00:07.460Z,39.50
2017-05-29T10:02:35.173Z,40.60
2017-05-29T10:05:03.058Z,40.80
2017-05-29T10:07:30.971Z,41.00
2017-05-29T10:09:58.016Z,40.60
2017-05-29T10:12:25.122Z,40.10
2017-05-29T10:14:52.177Z,40.80
2017-05-29T10:17:19.828Z,40.80
2017-05-29T10:19:46.949Z,40.40
2017-05-29T10:22:13.891Z,41.10
2017-05-29T10:24:43.004Z,41.10
2017-05-29T10:27:10.527Z,41.00
2017-05-29T10:29:38.143Z,41.20
2017-05-29T10:32:05.096Z,41.20
2017-05-29T10:34:32.447Z,40.80
2017-05-29T10:36:59.366Z,40.50
2017-05-29T10:39:27.883Z,40.00
2017-05-29T10:41:55.852Z,39.80
2017-05-29T10:44:24.597Z,39.50
2017-05-29T10:46:51.558Z,39.40
2017-05-29T10:49:18.504Z,39.50
2017-05-29T10:51:46.464Z,39.10
2017-05-29T10:54:15.599Z,39.50
2017-05-29T10:56:43.114Z,39.80
2017-05-29T10:59:11.293Z,39.80
2017-05-29T11:01:38.932Z,39.50
2017-05-29T11:04:06.285Z,39.60
2017-05-29T11:06:33.456Z,39.80
2017-05-29T11:09:02.246Z,40.00
2017-05-29T11:11:29.215Z,40.60
2017-05-29T11:13:56.710Z,40.60
2017-05-29T11:16:23.764Z,40.30
2017-05-29T11:18:59.235Z,40.50
2017-05-29T11:21:34.235Z,40.60
2017-05-29T11:24:01.280Z,40.80
2017-05-29T11:26:28.274Z,41.20
2017-05-29T11:28:55.846Z,41.00
2017-05-29T11:31:22.841Z,40.50
2017-05-29T11:33:50.140Z,40.10
2017-05-29T11:36:17.074Z,40.60
2017-05-29T11:38:44.151Z,40.40
2017-05-29T11:41:11.445Z,40.20
2017-05-29T11:43:39.437Z,40.00
2017-05-29T11:46:06.467Z,39.90
2017-05-29T11:48:33.419Z,39.80
2017-05-29T11:51:01.236Z,39.70
2017-05-29T11:53:28.198Z,39.80
2017-05-29T11:55:55.165Z,39.50
2017-05-29T11:58:22.123Z,39.50
2017-05-29T12:00:49.072Z,39.20
2017-05-29T12:03:16.032Z,39.30
2017-05-29T12:05:43.015Z,39.10
2017-05-29T12:08:10.036Z,38.40
2017-05-29T12:10:37.344Z,38.50
2017-05-29T12:13:04.298Z,38.80
2017-05-29T12:15:32.182Z,38.60
2017-05-29T12:18:00.297Z,38.60
2017-05-29T12:20:27.223Z,38.10
2017-05-29T12:22:56.740Z,38.00
2017-05-29T12:25:24.572Z,38.00
2017-05-29T12:27:51.563Z,38.00
2017-05-29T12:30:18.477Z,38.10
2017-05-29T12:32:45.668Z,38.20
2017-05-29T12:35:12.844Z,38.50
2017-05-29T12:37:39.776Z,38.20
2017-05-29T12:40:07.843Z,37.70
2017-05-29T12:42:35.599Z,37.20
2017-05-29T12:45:03.582Z,37.00
2017-05-29T12:47:31.105Z,37.10
2017-05-29T12:49:58.062Z,36.90
2017-05-29T12:52:24.977Z,36.90
2017-05-29T12:54:53.875Z,37.00
2017-05-29T12:57:20.830Z,37.00
2017-05-29T12:59:48.646Z,36.80
2017-05-29T13:02:15.690Z,36.70
2017-05-29T13:04:42.604Z,36.70
2017-05-29T13:07:09.527Z,36.40
2017-05-29T13:09:37.515Z,36.40
2017-05-29T13:12:05.611Z,36.50
2017-05-29T13:14:32.680Z,36.60
2017-05-29T13:16:59.634Z,36.50
2017-05-29T13:29:11.584Z,35.80
2017-05-29T13:31:39.483Z,36.00
2017-05-29T13:34:07.540Z,35.90
2017-05-29T13:36:34.474Z,35.70
2017-05-29T13:39:01.464Z,35.60
2017-05-29T13:41:28.774Z,35.20
2017-05-29T13:43:55.684Z,35.30
2017-05-29T13:46:23.664Z,35.40
2017-05-29T13:48:50.829Z,35.10
2017-05-29T13:51:18.103Z,34.90
2017-05-29T13:53:45.881Z,34.70
2017-05-29T13:56:13.055Z,34.50
2017-05-29T13:58:40.897Z,34.60
2017-05-29T14:01:08.659Z,34.80
2017-05-29T14:03:35.616Z,34.90
2017-05-29T14:06:03.280Z,35.10
2017-05-29T14:08:31.148Z,35.00
2017-05-29T14:10:58.143Z,34.90
2017-05-29T14:13:25.321Z,34.60
2017-05-29T14:15:52.240Z,34.60
2017-05-29T14:18:19.176Z,34.50
2017-05-29T14:20:46.915Z,34.40
2017-05-29T14:23:15.753Z,34.30
2017-05-29T14:25:42.698Z,34.10
2017-05-29T14:28:09.665Z,33.60
2017-05-29T14:30:36.708Z,33.10
2017-05-29T14:33:04.668Z,32.90
2017-05-29T14:35:32.371Z,33.20
2017-05-29T14:38:02.025Z,33.70
2017-05-29T14:40:30.040Z,33.70
2017-05-29T14:42:58.492Z,33.50
2017-05-29T14:45:26.054Z,33.10
2017-05-29T14:47:53.006Z,32.70
2017-05-29T14:50:19.946Z,32.50
2017-05-29T15:02:31.952Z,32.10
2017-05-29T15:04:58.860Z,32.30
2017-05-29T15:07:27.488Z,32.40
2017-05-29T15:09:54.600Z,32.20
2017-05-29T15:12:22.364Z,32.10
2017-05-29T15:24:34.433Z,32.00
2017-05-29T15:27:02.980Z,31.70
2017-05-29T15:29:29.884Z,31.70
2017-05-29T15:31:56.815Z,31.70
2017-05-29T15:34:24.247Z,32.00
2017-05-29T15:36:51.242Z,32.20
2017-05-29T15:39:19.311Z,32.10
2017-05-29T15:41:46.396Z,32.10
2017-05-29T15:53:59.129Z,31.60
2017-05-29T15:56:26.069Z,31.70
2017-05-29T15:58:54.244Z,31.50
2017-05-29T16:01:21.305Z,31.50
2017-05-29T16:03:49.190Z,31.40
2017-05-29T16:06:16.277Z,31.40
2017-05-29T16:08:43.232Z,31.40
2017-05-29T16:11:10.251Z,31.20
2017-05-29T16:13:38.395Z,31.20
2017-05-29T16:16:05.668Z,31.00
2017-05-29T16:18:32.660Z,31.10
2017-05-29T16:20:59.635Z,31.10
2017-05-29T16:23:26.652Z,30.90
2017-05-29T16:25:55.061Z,30.90
2017-05-29T16:28:22.460Z,30.90
2017-05-29T16:30:51.253Z,30.80
2017-05-29T16:33:18.178Z,30.90
2017-05-29T16:35:45.642Z,30.60
2017-05-29T16:38:13.530Z,30.30
2017-05-29T16:40:40.552Z,30.20
2017-05-29T16:43:08.104Z,30.40
2017-05-29T16:45:35.717Z,30.30
2017-05-29T16:48:02.939Z,30.20
2017-05-29T16:50:29.913Z,30.10
2017-05-29T16:52:56.904Z,30.00
2017-05-29T16:55:24.666Z,30.00
2017-05-29T16:57:51.616Z,30.00
2017-05-29T17:00:21.459Z,30.00
2017-05-29T17:02:48.560Z,29.90
2017-05-29T17:05:16.597Z,30.00
2017-05-29T17:07:44.369Z,30.10
2017-05-29T17:10:11.317Z,29.90
2017-05-29T17:12:39.322Z,30.00
2017-05-29T17:15:06.349Z,29.90
2017-05-29T17:17:35.196Z,29.80
2017-05-29T17:20:04.902Z,30.00
2017-05-29T17:22:31.843Z,29.80
2017-05-29T17:24:59.778Z,30.00
2017-05-29T17:27:26.697Z,29.90
2017-05-29T17:29:55.116Z,30.10
2017-05-29T17:32:37.549Z,30.10
2017-05-29T17:35:04.579Z,30.00
2017-05-29T17:37:32.548Z,29.80
2017-05-29T17:39:59.600Z,29.80
2017-05-29T17:42:27.624Z,29.70
2017-05-29T17:44:55.439Z,29.70
2017-05-29T17:47:22.431Z,29.60
2017-05-29T17:49:50.226Z,29.60
2017-05-29T17:52:17.201Z,29.50
2017-05-29T17:54:44.427Z,29.50
2017-05-29T17:57:11.772Z,29.50
2017-05-29T17:59:38.722Z,29.50
2017-05-29T18:02:06.263Z,29.40
2017-05-29T18:04:33.530Z,29.30
2017-05-29T18:07:00.726Z,29.20
2017-05-29T18:09:28.116Z,29.20
2017-05-29T18:11:56.396Z,29.10
2017-05-29T18:14:26.356Z,28.90
2017-05-29T18:16:54.383Z,28.80
2017-05-29T18:19:25.643Z,28.90
2017-05-29T18:21:54.070Z,28.90
2017-05-29T18:24:21.033Z,28.80
2017-05-29T18:26:47.982Z,28.80
2017-05-29T18:29:16.873Z,28.90
2017-05-29T18:31:45.992Z,29.00
2017-05-29T18:34:14.422Z,28.70
2017-05-29T18:36:41.916Z,28.50
2017-05-29T18:39:08.917Z,28.40
2017-05-29T18:51:22.285Z,28.20
2017-05-29T18:53:50.193Z,28.10
2017-05-29T18:56:17.811Z,28.10
2017-05-29T18:58:44.795Z,28.00
2017-05-29T19:01:12.114Z,28.00
2017-05-29T19:03:39.192Z,27.90
2017-05-29T19:06:06.209Z,27.90
2017-05-29T19:08:34.044Z,27.80
2017-05-29T19:11:02.940Z,27.70
2017-05-29T19:13:30.950Z,27.60
2017-05-29T19:15:57.902Z,27.60
2017-05-29T19:18:26.632Z,27.60
2017-05-29T19:20:53.615Z,27.60
2017-05-29T19:23:20.595Z,27.60
2017-05-29T19:25:51.698Z,27.50
2017-05-29T19:28:20.444Z,27.50
2017-05-29T19:30:48.153Z,27.40
2017-05-29T19:33:15.985Z,27.40
2017-05-29T19:35:43.984Z,27.40
2017-05-29T19:38:11.067Z,27.40
2017-05-29T19:40:40.096Z,27.30
2017-05-29T19:43:07.234Z,27.30
2017-05-29T19:45:35.346Z,27.20
2017-05-29T19:57:49.369Z,27.10
2017-05-29T20:00:16.337Z,27.10
2017-05-29T20:12:29.427Z,26.90
2017-05-29T20:14:56.354Z,26.90
2017-05-29T20:17:24.659Z,26.80
2017-05-29T20:19:52.374Z,26.80
2017-05-29T20:22:20.470Z,26.70
2017-05-29T20:24:50.869Z,26.70
2017-05-29T20:27:18.386Z,26.70
2017-05-29T20:29:48.436Z,26.70
2017-05-29T20:32:15.455Z,26.60
2017-05-29T20:34:43.052Z,26.50
2017-05-29T20:37:11.498Z,26.50
2017-05-29T20:39:38.472Z,26.40
2017-05-29T20:42:06.424Z,26.40
2017-05-29T20:44:33.343Z,26.40
2017-05-29T20:47:00.310Z,26.40
2017-05-29T20:49:28.037Z,26.40
2017-05-29T21:01:40.880Z,26.10
2017-05-29T21:04:08.475Z,26.10
2017-05-29T21:06:36.203Z,26.00
2017-05-29T21:09:03.204Z,26.00
2017-05-29T21:11:30.181Z,26.00
2017-05-29T21:13:57.225Z,25.90
2017-05-29T21:16:24.125Z,25.90
2017-05-29T21:18:51.113Z,25.90
2017-05-29T21:21:18.049Z,25.80
2017-05-29T21:23:46.065Z,25.70
2017-05-29T21:26:13.892Z,25.70
2017-05-29T21:28:40.880Z,25.60
2017-05-29T21:31:08.303Z,25.70
2017-05-29T21:33:35.300Z,25.60
2017-05-29T21:36:02.375Z,25.60
2017-05-29T21:38:33.539Z,25.60
2017-05-29T21:41:00.585Z,25.60
2017-05-29T21:43:28.730Z,25.60
2017-05-29T21:45:55.753Z,25.60
2017-05-29T21:48:23.017Z,25.50
2017-05-29T21:50:49.979Z,25.50
2017-05-29T21:53:18.357Z,25.40
2017-05-29T21:55:46.199Z,25.40
2017-05-29T21:58:13.129Z,25.40
2017-05-29T22:00:40.093Z,25.40
2017-05-29T22:03:07.022Z,25.40
2017-05-29T22:05:34.012Z,25.40
2017-05-29T22:08:00.976Z,25.30
2017-05-29T22:10:28.359Z,25.40
2017-05-29T22:12:55.267Z,25.40
2017-05-29T22:15:22.279Z,25.40
2017-05-29T22:17:49.906Z,25.40
2017-05-29T22:20:18.109Z,25.30
2017-05-29T22:22:46.929Z,25.30
2017-05-29T22:25:13.933Z,25.30
2017-05-29T22:27:40.827Z,25.30
2017-05-29T22:30:07.914Z,25.20
2017-05-29T22:32:34.821Z,25.00
2017-05-29T22:35:01.794Z,25.10
2017-05-29T22:37:29.425Z,25.00
2017-05-29T22:40:00.351Z,25.10
2017-05-29T22:42:29.171Z,25.00
2017-05-29T22:44:56.254Z,24.80
2017-05-29T22:47:23.802Z,24.50
2017-05-29T22:49:51.791Z,24.30
2017-05-29T22:53:59.796Z,24.10
2017-05-29T22:56:26.736Z,24.10
2017-05-29T22:58:55.429Z,24.10
2017-05-29T23:01:22.364Z,24.10
2017-05-29T23:03:49.296Z,24.10
2017-05-29T23:06:16.230Z,24.10
2017-05-29T23:08:43.324Z,24.20
2017-05-29T23:11:10.250Z,24.20
2017-05-29T23:13:37.188Z,24.20
2017-05-29T23:16:04.307Z,24.20
2017-05-29T23:18:32.988Z,24.20
2017-05-29T23:21:00.838Z,24.20
2017-05-29T23:23:27.820Z,24.20
2017-05-29T23:25:56.745Z,24.10
2017-05-29T23:28:23.733Z,24.10
2017-05-29T23:31:05.593Z,24.10
2017-05-29T23:33:32.605Z,23.80
2017-05-29T23:36:00.540Z,23.70
2017-05-29T23:38:27.672Z,23.60
2017-05-29T23:40:55.571Z,23.60
2017-05-29T23:43:22.544Z,23.80
2017-05-29T23:45:49.479Z,23.80
2017-05-29T23:48:16.415Z,23.80
2017-05-29T23:50:43.340Z,23.90
2017-05-29T23:53:10.241Z,23.80
2017-05-29T23:55:37.185Z,23.80
2017-05-29T23:58:05.017Z,23.80
